createdAt,value
2019-03-13T00:01:41.866Z,99.90
2019-03-13T00:04:14.820Z,99.90
2019-03-13T00:06:47.691Z,99.90
2019-03-13T00:09:20.807Z,99.90
2019-03-13T00:11:53.782Z,99.90
2019-03-13T00:14:26.939Z,99.70
2019-03-13T00:16:59.733Z,99.40
2019-03-13T00:19:32.725Z,98.70
2019-03-13T00:22:09.708Z,98.90
2019-03-13T00:24:42.658Z,98.40
2019-03-13T00:27:15.560Z,98.00
2019-03-13T00:29:48.441Z,98.00
2019-03-13T00:32:22.394Z,97.80
2019-03-13T00:34:55.187Z,97.90
2019-03-13T00:37:28.275Z,98.00
2019-03-13T00:40:01.146Z,97.50
2019-03-13T00:42:34.041Z,98.00
2019-03-13T00:45:07.979Z,97.80
2019-03-13T00:47:40.943Z,98.00
2019-03-13T00:50:25.695Z,98.20
2019-03-13T00:52:58.574Z,97.80
2019-03-13T00:55:31.495Z,98.00
2019-03-13T00:58:04.570Z,97.30
2019-03-13T01:00:50.781Z,97.00
2019-03-13T01:03:41.661Z,97.50
2019-03-13T01:06:34.025Z,97.20
2019-03-13T01:09:09.296Z,97.20
2019-03-13T01:11:43.217Z,97.40
2019-03-13T01:14:15.994Z,97.10
2019-03-13T01:16:49.232Z,97.00
2019-03-13T01:19:22.040Z,97.10
2019-03-13T01:21:55.021Z,97.20
2019-03-13T01:24:28.268Z,97.10
2019-03-13T01:27:01.252Z,97.00
2019-03-13T01:29:34.087Z,97.00
2019-03-13T01:32:25.561Z,97.00
2019-03-13T01:35:17.078Z,97.20
2019-03-13T01:37:50.150Z,97.20
2019-03-13T01:40:23.337Z,97.10
2019-03-13T01:42:56.876Z,97.10
2019-03-13T01:45:29.807Z,97.10
2019-03-13T01:48:02.821Z,97.10
2019-03-13T01:50:35.881Z,96.90
2019-03-13T01:53:21.574Z,96.90
2019-03-13T01:55:54.422Z,96.80
2019-03-13T01:58:27.363Z,96.80
2019-03-13T02:01:06.832Z,96.70
2019-03-13T02:03:39.939Z,96.60
2019-03-13T02:06:13.107Z,96.50
2019-03-13T02:08:46.856Z,96.70
2019-03-13T02:11:19.801Z,96.70
2019-03-13T02:13:52.787Z,96.60
2019-03-13T02:16:25.582Z,96.50
2019-03-13T02:18:58.702Z,96.40
2019-03-13T02:21:31.694Z,96.40
2019-03-13T02:24:04.688Z,96.10
2019-03-13T02:26:37.632Z,96.20
2019-03-13T02:29:10.369Z,96.50
2019-03-13T02:31:43.194Z,96.20
2019-03-13T02:34:16.061Z,96.00
2019-03-13T02:36:48.892Z,96.00
2019-03-13T02:39:22.009Z,95.90
2019-03-13T02:41:54.963Z,95.90
2019-03-13T02:44:27.968Z,96.10
2019-03-13T02:47:01.023Z,96.30
2019-03-13T02:49:34.134Z,96.50
2019-03-13T02:52:07.012Z,96.20
2019-03-13T02:54:39.926Z,96.20
2019-03-13T02:57:12.843Z,96.00
2019-03-13T02:59:45.738Z,96.00
2019-03-13T03:02:39.685Z,95.90
2019-03-13T03:05:12.928Z,95.70
2019-03-13T03:07:45.767Z,95.60
2019-03-13T03:10:18.803Z,95.40
2019-03-13T03:12:51.676Z,95.20
2019-03-13T03:15:24.714Z,95.20
2019-03-13T03:17:57.593Z,95.00
2019-03-13T03:20:30.594Z,95.30
2019-03-13T03:23:03.483Z,94.70
2019-03-13T03:25:36.632Z,94.40
2019-03-13T03:28:09.476Z,94.50
2019-03-13T03:30:42.733Z,94.50
2019-03-13T03:33:15.737Z,94.60
2019-03-13T03:35:48.659Z,94.40
2019-03-13T03:38:21.519Z,94.10
2019-03-13T03:40:54.761Z,94.10
2019-03-13T03:43:39.385Z,93.90
2019-03-13T03:46:02.537Z,93.90
2019-03-13T03:48:35.356Z,93.80
2019-03-13T03:51:08.159Z,93.80
2019-03-13T03:54:00.429Z,93.70
2019-03-13T03:56:33.326Z,93.60
2019-03-13T03:59:06.384Z,93.70
2019-03-13T04:01:39.167Z,93.80
2019-03-13T04:04:11.990Z,93.10
2019-03-13T04:06:44.921Z,93.20
2019-03-13T04:09:17.883Z,93.00
2019-03-13T04:11:51.092Z,92.80
2019-03-13T04:14:24.383Z,92.80
2019-03-13T04:16:57.545Z,92.40
2019-03-13T04:19:30.359Z,92.50
2019-03-13T04:22:03.338Z,92.40
2019-03-13T04:24:36.058Z,92.80
2019-03-13T04:27:09.100Z,92.30
2019-03-13T04:29:42.909Z,92.80
2019-03-13T04:32:23.032Z,92.30
2019-03-13T04:34:55.837Z,92.30
2019-03-13T04:37:28.671Z,92.20
2019-03-13T04:40:01.528Z,92.00
2019-03-13T04:42:34.470Z,91.70
2019-03-13T04:45:07.498Z,91.70
2019-03-13T04:47:40.275Z,91.70
2019-03-13T04:50:13.183Z,91.40
2019-03-13T04:52:46.222Z,91.60
2019-03-13T04:55:19.102Z,91.60
2019-03-13T04:57:52.014Z,91.90
2019-03-13T05:00:24.858Z,91.80
2019-03-13T05:02:57.712Z,91.90
2019-03-13T05:05:51.475Z,92.10
2019-03-13T05:08:44.963Z,92.00
2019-03-13T05:11:14.703Z,92.00
2019-03-13T05:13:47.610Z,92.20
2019-03-13T05:16:20.599Z,91.80
2019-03-13T05:18:53.615Z,92.10
2019-03-13T05:21:26.424Z,91.80
2019-03-13T05:23:59.327Z,91.90
2019-03-13T05:26:32.174Z,91.70
2019-03-13T05:29:05.104Z,91.50
2019-03-13T05:31:37.915Z,91.40
2019-03-13T05:34:10.705Z,91.50
2019-03-13T05:36:43.643Z,91.50
2019-03-13T05:39:16.654Z,91.70
2019-03-13T05:41:49.592Z,91.70
2019-03-13T05:44:22.623Z,91.60
2019-03-13T05:46:55.542Z,91.30
2019-03-13T05:49:28.585Z,91.30
2019-03-13T05:52:01.534Z,91.60
2019-03-13T05:54:34.481Z,91.40
2019-03-13T05:57:07.509Z,91.40
2019-03-13T05:59:41.310Z,91.10
2019-03-13T06:02:14.394Z,91.20
2019-03-13T06:04:47.489Z,91.10
2019-03-13T06:07:20.302Z,91.10
2019-03-13T06:09:53.239Z,91.30
2019-03-13T06:12:26.236Z,91.40
2019-03-13T06:14:59.459Z,91.30
2019-03-13T06:17:32.350Z,91.50
2019-03-13T06:20:06.081Z,91.30
2019-03-13T06:22:39.175Z,91.10
2019-03-13T06:25:12.359Z,91.20
2019-03-13T06:27:46.598Z,91.00
2019-03-13T06:30:20.268Z,91.20
2019-03-13T06:32:53.342Z,91.50
2019-03-13T06:35:26.437Z,90.90
2019-03-13T06:37:59.664Z,91.20
2019-03-13T06:40:33.104Z,91.00
2019-03-13T06:43:06.091Z,90.50
2019-03-13T06:45:38.945Z,90.50
2019-03-13T06:48:11.817Z,90.70
2019-03-13T06:50:44.896Z,90.40
2019-03-13T06:53:17.990Z,90.40
2019-03-13T06:55:50.981Z,90.40
2019-03-13T06:58:43.615Z,90.40
2019-03-13T07:01:32.643Z,90.30
2019-03-13T07:04:32.991Z,90.20
2019-03-13T07:07:31.251Z,90.60
2019-03-13T07:10:31.850Z,90.40
2019-03-13T07:13:27.237Z,90.60
2019-03-13T07:16:18.268Z,90.60
2019-03-13T07:19:16.763Z,90.60
2019-03-13T07:22:15.230Z,90.70
2019-03-13T07:25:13.535Z,90.80
2019-03-13T07:28:12.071Z,90.90
2019-03-13T07:30:58.672Z,91.00
2019-03-13T07:33:51.141Z,90.90
2019-03-13T07:36:41.206Z,90.70
2019-03-13T07:39:33.537Z,91.00
2019-03-13T07:42:24.967Z,90.60
2019-03-13T07:45:16.652Z,90.60
2019-03-13T07:48:12.322Z,90.90
2019-03-13T07:51:13.715Z,90.60
2019-03-13T07:54:12.283Z,90.70
2019-03-13T07:56:52.919Z,90.70
2019-03-13T07:59:57.627Z,90.80
2019-03-13T08:02:52.767Z,90.70
2019-03-13T08:05:38.162Z,90.90
2019-03-13T08:08:36.387Z,90.80
2019-03-13T08:11:44.051Z,90.70
2019-03-13T08:14:41.156Z,90.90
2019-03-13T08:17:21.933Z,91.00
2019-03-13T08:20:20.317Z,91.20
2019-03-13T08:23:15.544Z,91.30
2019-03-13T08:26:06.756Z,91.60
2019-03-13T08:29:08.176Z,91.90
2019-03-13T08:32:06.636Z,92.10
2019-03-13T08:35:05.151Z,92.20
2019-03-13T08:37:54.389Z,93.00
2019-03-13T08:40:45.243Z,93.40
2019-03-13T08:43:46.837Z,93.50
2019-03-13T08:46:39.285Z,93.80
2019-03-13T08:49:31.818Z,93.70
2019-03-13T08:52:36.379Z,93.70
2019-03-13T08:55:18.286Z,93.60
2019-03-13T08:57:57.953Z,93.80
2019-03-13T09:00:50.403Z,93.60
2019-03-13T09:03:27.529Z,93.60
2019-03-13T09:06:20.113Z,93.70
2019-03-13T09:09:21.344Z,93.60
2019-03-13T09:12:03.758Z,93.70
2019-03-13T09:14:43.899Z,93.50
2019-03-13T09:17:40.172Z,93.60
2019-03-13T09:20:35.709Z,93.70
2019-03-13T09:23:28.016Z,93.70
2019-03-13T09:26:26.321Z,93.40
2019-03-13T09:29:24.801Z,93.70
2019-03-13T09:32:17.126Z,93.90
2019-03-13T09:35:18.962Z,94.30
2019-03-13T09:38:29.509Z,94.60
2019-03-13T09:41:31.063Z,94.50
2019-03-13T09:44:41.604Z,94.40
2019-03-13T09:47:21.064Z,94.50
2019-03-13T09:50:13.519Z,94.30
2019-03-13T09:53:15.235Z,94.10
2019-03-13T09:56:16.624Z,94.20
2019-03-13T09:59:08.168Z,94.10
2019-03-13T10:02:12.588Z,94.10
2019-03-13T10:05:01.321Z,93.90
2019-03-13T10:08:05.834Z,94.20
2019-03-13T10:11:10.363Z,94.10
2019-03-13T10:13:58.749Z,94.00
2019-03-13T10:16:50.186Z,94.10
2019-03-13T10:19:45.794Z,94.10
2019-03-13T10:22:35.190Z,93.90
2019-03-13T10:25:13.249Z,93.60
2019-03-13T10:28:05.658Z,94.00
2019-03-13T10:30:44.313Z,93.60
2019-03-13T10:33:32.666Z,94.00
2019-03-13T10:36:27.892Z,93.60
2019-03-13T10:39:29.342Z,93.70
2019-03-13T10:42:27.814Z,93.70
2019-03-13T10:45:22.304Z,93.60
2019-03-13T10:48:17.473Z,93.80
2019-03-13T10:51:12.281Z,94.60
2019-03-13T10:54:07.675Z,94.90
2019-03-13T10:57:02.724Z,97.20
2019-03-13T10:59:44.050Z,98.90
2019-03-13T11:02:36.565Z,99.90
2019-03-13T11:05:34.848Z,99.90
2019-03-13T11:08:25.341Z,99.90
2019-03-13T11:11:23.661Z,99.90
2019-03-13T11:14:14.809Z,99.90
2019-03-13T11:17:01.943Z,99.90
2019-03-13T11:20:16.259Z,99.90
2019-03-13T11:23:00.671Z,99.90
2019-03-13T11:25:46.255Z,99.90
2019-03-13T11:28:50.955Z,99.90
2019-03-13T11:31:43.351Z,99.90
2019-03-13T11:34:23.480Z,99.90
2019-03-13T11:37:11.772Z,99.90
2019-03-13T11:40:01.936Z,99.90
2019-03-13T11:43:04.812Z,99.90
2019-03-13T11:45:56.136Z,99.90
2019-03-13T11:49:07.251Z,99.90
2019-03-13T11:52:00.624Z,99.90
2019-03-13T11:55:08.111Z,99.80
2019-03-13T11:58:16.650Z,98.90
2019-03-13T12:01:07.809Z,98.40
2019-03-13T12:03:59.372Z,98.30
2019-03-13T12:06:54.790Z,97.90
2019-03-13T12:09:56.826Z,97.90
2019-03-13T12:12:46.236Z,98.20
2019-03-13T12:15:41.145Z,98.40
2019-03-13T12:18:26.824Z,97.80
2019-03-13T12:21:31.727Z,98.00
2019-03-13T12:24:22.899Z,97.70
2019-03-13T12:27:08.490Z,97.70
2019-03-13T12:30:04.195Z,98.20
2019-03-13T12:33:04.181Z,98.10
2019-03-13T12:35:48.450Z,97.70
2019-03-13T12:38:36.687Z,97.70
2019-03-13T12:41:38.298Z,98.10
2019-03-13T12:44:39.946Z,97.30
2019-03-13T12:47:35.120Z,97.70
2019-03-13T12:50:25.997Z,98.00
2019-03-13T12:53:17.217Z,97.60
2019-03-13T12:56:12.486Z,97.50
2019-03-13T12:59:11.145Z,97.10
2019-03-13T13:02:03.410Z,97.30
2019-03-13T13:04:54.506Z,97.20
2019-03-13T13:07:46.913Z,97.30
2019-03-13T13:10:39.277Z,97.40
2019-03-13T13:13:34.565Z,96.60
2019-03-13T13:16:45.331Z,96.60
2019-03-13T13:19:18.540Z,97.00
2019-03-13T13:21:52.502Z,97.10
2019-03-13T13:24:25.480Z,98.10
2019-03-13T13:26:58.374Z,98.00
2019-03-13T13:29:31.116Z,98.80
2019-03-13T13:32:04.507Z,98.70
2019-03-13T13:34:37.480Z,98.80
2019-03-13T13:37:10.475Z,98.80
2019-03-13T13:39:43.327Z,99.00
2019-03-13T13:42:16.073Z,98.80
2019-03-13T13:44:48.997Z,99.80
2019-03-13T13:47:22.087Z,99.60
2019-03-13T13:49:59.869Z,99.90
2019-03-13T13:52:30.500Z,99.90
2019-03-13T13:55:03.759Z,99.90
2019-03-13T13:57:36.906Z,99.90
2019-03-13T14:00:09.933Z,99.30
2019-03-13T14:02:42.965Z,99.20
2019-03-13T14:05:16.197Z,99.30
2019-03-13T14:07:49.338Z,98.80
2019-03-13T14:10:22.663Z,98.00
2019-03-13T14:12:55.858Z,98.50
2019-03-13T14:15:28.962Z,97.90
2019-03-13T14:18:01.739Z,98.40
2019-03-13T14:20:34.892Z,98.10
2019-03-13T14:23:07.931Z,98.30
2019-03-13T14:25:40.837Z,98.10
2019-03-13T14:28:14.930Z,97.80
2019-03-13T14:30:49.055Z,97.80
2019-03-13T14:33:22.207Z,98.00
2019-03-13T14:35:57.188Z,97.90
2019-03-13T14:38:30.411Z,98.70
2019-03-13T14:41:03.628Z,99.10
2019-03-13T14:43:36.656Z,99.90
2019-03-13T14:46:09.682Z,99.90
2019-03-13T14:48:42.845Z,99.90
2019-03-13T14:51:16.007Z,99.90
2019-03-13T14:53:49.521Z,99.90
2019-03-13T14:56:22.466Z,99.90
2019-03-13T14:58:55.567Z,99.90
2019-03-13T15:01:28.622Z,99.70
2019-03-13T15:04:01.759Z,99.70
2019-03-13T15:06:35.019Z,99.90
2019-03-13T15:09:08.323Z,99.90
2019-03-13T15:11:41.781Z,99.70
2019-03-13T15:14:14.758Z,99.90
2019-03-13T15:16:47.847Z,99.90
2019-03-13T15:19:20.932Z,99.90
2019-03-13T15:21:54.019Z,99.90
2019-03-13T15:24:27.137Z,99.90
2019-03-13T15:27:00.134Z,99.90
2019-03-13T15:29:33.324Z,99.90
2019-03-13T15:32:06.302Z,99.90
2019-03-13T15:34:41.490Z,99.90
2019-03-13T15:37:13.983Z,99.90
2019-03-13T15:39:47.293Z,99.90
2019-03-13T15:42:20.247Z,99.90
2019-03-13T15:44:53.432Z,99.90
2019-03-13T15:47:26.469Z,99.90
2019-03-13T15:49:59.937Z,99.90
2019-03-13T15:52:32.978Z,99.90
2019-03-13T15:55:07.297Z,99.90
2019-03-13T15:57:40.298Z,99.90
2019-03-13T16:00:17.045Z,99.90
2019-03-13T16:02:50.248Z,99.90
2019-03-13T16:05:23.596Z,99.90
2019-03-13T16:07:56.646Z,99.90
2019-03-13T16:10:29.865Z,99.90
2019-03-13T16:13:04.542Z,99.90
2019-03-13T16:15:37.964Z,99.90
2019-03-13T16:18:11.938Z,99.90
2019-03-13T16:20:44.844Z,99.90
2019-03-13T16:23:18.843Z,99.90
2019-03-13T16:25:51.730Z,99.90
2019-03-13T16:28:24.740Z,99.90
2019-03-13T16:30:57.868Z,99.90
2019-03-13T16:33:30.725Z,99.90
2019-03-13T16:36:03.862Z,99.90
2019-03-13T16:38:36.919Z,99.90
2019-03-13T16:41:10.225Z,99.90
2019-03-13T16:43:43.238Z,99.90
2019-03-13T16:46:16.619Z,99.90
2019-03-13T16:48:49.564Z,99.90
2019-03-13T16:51:22.720Z,99.90
2019-03-13T16:53:55.795Z,99.90
2019-03-13T16:56:28.883Z,99.90
2019-03-13T16:59:02.046Z,99.90
2019-03-13T17:01:34.801Z,99.90
2019-03-13T17:04:08.035Z,99.90
2019-03-13T17:06:41.073Z,99.90
2019-03-13T17:09:14.303Z,99.90
2019-03-13T17:11:49.861Z,99.90
2019-03-13T17:14:25.176Z,99.90
2019-03-13T17:16:59.559Z,99.90
2019-03-13T17:19:32.521Z,99.90
2019-03-13T17:22:05.525Z,99.90
2019-03-13T17:24:38.774Z,99.90
2019-03-13T17:27:11.906Z,99.90
2019-03-13T17:29:45.055Z,99.90
2019-03-13T17:32:18.122Z,99.90
2019-03-13T17:34:51.166Z,99.90
2019-03-13T17:37:24.418Z,99.90
2019-03-13T17:39:57.882Z,99.90
2019-03-13T17:42:31.826Z,99.90
2019-03-13T17:45:07.298Z,99.90
2019-03-13T17:47:40.185Z,99.90
2019-03-13T17:50:14.632Z,99.90
2019-03-13T17:52:47.739Z,99.90
2019-03-13T17:55:21.155Z,99.90
2019-03-13T17:57:53.987Z,99.90
2019-03-13T18:00:30.275Z,99.90
2019-03-13T18:03:03.735Z,99.90
2019-03-13T18:05:36.879Z,99.90
2019-03-13T18:08:10.231Z,99.90
2019-03-13T18:10:43.194Z,99.90
2019-03-13T18:13:16.221Z,99.90
2019-03-13T18:15:49.750Z,99.90
2019-03-13T18:18:22.654Z,99.90
2019-03-13T18:20:55.836Z,99.90
2019-03-13T18:23:28.932Z,99.90
2019-03-13T18:26:01.706Z,99.90
2019-03-13T18:28:34.730Z,99.90
2019-03-13T18:31:07.735Z,99.90
2019-03-13T18:33:40.600Z,99.90
2019-03-13T18:36:14.403Z,99.90
2019-03-13T18:38:47.772Z,99.90
2019-03-13T18:41:23.120Z,99.90
2019-03-13T18:43:55.884Z,99.90
2019-03-13T18:46:28.615Z,99.90
2019-03-13T18:49:01.471Z,99.90
2019-03-13T18:51:34.601Z,99.90
2019-03-13T18:54:07.436Z,99.90
2019-03-13T18:56:40.350Z,99.90
2019-03-13T18:59:13.449Z,99.90
2019-03-13T19:01:46.801Z,99.90
2019-03-13T19:04:19.907Z,99.90
2019-03-13T19:06:52.991Z,99.90
2019-03-13T19:09:29.093Z,99.90
2019-03-13T19:12:01.577Z,99.90
2019-03-13T19:14:34.467Z,99.90
2019-03-13T19:17:07.534Z,99.90
2019-03-13T19:19:40.661Z,99.90
2019-03-13T19:22:13.702Z,99.90
2019-03-13T19:24:46.608Z,99.90
2019-03-13T19:27:19.730Z,99.90
2019-03-13T19:29:52.658Z,99.90
2019-03-13T19:32:25.562Z,99.90
2019-03-13T19:34:58.494Z,99.90
2019-03-13T19:37:31.457Z,99.90
2019-03-13T19:40:05.308Z,99.90
2019-03-13T19:42:38.181Z,99.90
2019-03-13T19:45:13.934Z,99.90
2019-03-13T19:47:47.158Z,99.90
2019-03-13T19:50:20.241Z,99.90
2019-03-13T19:52:53.439Z,99.90
2019-03-13T19:55:27.228Z,99.90
2019-03-13T19:58:00.428Z,99.90
2019-03-13T20:00:35.016Z,99.90
2019-03-13T20:03:08.478Z,99.90
2019-03-13T20:05:45.898Z,99.90
2019-03-13T20:08:16.359Z,99.90
2019-03-13T20:10:57.831Z,99.90
2019-03-13T20:13:30.401Z,99.90
2019-03-13T20:16:05.770Z,99.90
2019-03-13T20:18:43.760Z,99.90
2019-03-13T20:21:24.050Z,99.90
2019-03-13T20:24:00.599Z,99.90
2019-03-13T20:26:35.543Z,99.90
2019-03-13T20:29:08.565Z,99.90
2019-03-13T20:31:41.702Z,99.90
2019-03-13T20:34:14.843Z,99.90
2019-03-13T20:36:48.163Z,99.90
2019-03-13T20:39:21.108Z,99.90
2019-03-13T20:41:54.586Z,99.90
2019-03-13T20:44:28.013Z,99.90
2019-03-13T20:47:03.004Z,99.90
2019-03-13T20:49:35.886Z,99.90
2019-03-13T20:52:10.478Z,99.90
2019-03-13T20:54:45.843Z,99.90
2019-03-13T20:57:22.036Z,99.90
2019-03-13T21:00:00.759Z,99.90
2019-03-13T21:02:38.088Z,99.90
2019-03-13T21:05:24.021Z,99.90
2019-03-13T21:08:00.087Z,99.90
2019-03-13T21:10:35.825Z,99.90
2019-03-13T21:13:11.409Z,99.90
2019-03-13T21:15:47.461Z,99.90
2019-03-13T21:18:22.416Z,99.90
2019-03-13T21:20:55.504Z,99.90
2019-03-13T21:23:28.934Z,99.90
2019-03-13T21:26:02.038Z,99.90
2019-03-13T21:28:35.101Z,99.90
2019-03-13T21:31:08.539Z,99.90
2019-03-13T21:33:41.411Z,99.90
2019-03-13T21:36:14.582Z,99.90
2019-03-13T21:38:47.635Z,99.90
2019-03-13T21:41:20.495Z,99.90
2019-03-13T21:43:53.553Z,99.90
2019-03-13T21:46:26.814Z,99.90
2019-03-13T21:48:59.623Z,99.90
2019-03-13T21:51:32.605Z,99.90
2019-03-13T21:54:05.755Z,99.90
2019-03-13T21:56:38.770Z,99.90
2019-03-13T21:59:11.753Z,99.90
2019-03-13T22:01:44.993Z,99.90
2019-03-13T22:04:24.194Z,99.90
2019-03-13T22:06:52.941Z,99.90
2019-03-13T22:09:25.823Z,99.90
2019-03-13T22:11:58.978Z,99.90
2019-03-13T22:14:32.199Z,99.90
2019-03-13T22:17:05.249Z,99.90
2019-03-13T22:19:38.224Z,99.90
2019-03-13T22:22:11.085Z,99.90
2019-03-13T22:24:44.110Z,99.90
2019-03-13T22:27:16.935Z,99.90
2019-03-13T22:29:49.849Z,99.90
2019-03-13T22:32:23.019Z,99.90
2019-03-13T22:34:56.107Z,99.90
2019-03-13T22:37:29.135Z,99.90
2019-03-13T22:40:02.135Z,99.90
2019-03-13T22:42:35.195Z,99.90
2019-03-13T22:45:09.100Z,99.90
2019-03-13T22:47:43.282Z,99.90
2019-03-13T22:50:17.304Z,99.90
2019-03-13T22:53:11.453Z,99.90
2019-03-13T22:55:44.630Z,99.90
2019-03-13T22:58:17.493Z,99.90
2019-03-13T23:00:56.303Z,99.90
2019-03-13T23:03:31.383Z,99.90
2019-03-13T23:06:04.643Z,99.90
2019-03-13T23:08:37.424Z,99.90
2019-03-13T23:11:10.200Z,99.90
2019-03-13T23:13:42.999Z,99.90
2019-03-13T23:16:16.152Z,99.90
2019-03-13T23:18:49.060Z,99.90
2019-03-13T23:21:22.056Z,99.90
2019-03-13T23:23:54.934Z,99.90
2019-03-13T23:26:27.990Z,99.90
2019-03-13T23:29:00.883Z,99.90
2019-03-13T23:31:33.861Z,99.90
2019-03-13T23:34:06.776Z,99.90
2019-03-13T23:36:40.674Z,99.90
2019-03-13T23:39:13.513Z,99.90
2019-03-13T23:41:46.450Z,99.90
2019-03-13T23:44:19.351Z,99.90
2019-03-13T23:46:52.420Z,99.90
2019-03-13T23:49:25.493Z,99.90
2019-03-13T23:51:58.516Z,99.90
2019-03-13T23:54:31.408Z,99.90
2019-03-13T23:57:04.359Z,99.90
2019-03-13T23:59:37.339Z,99.90
